createdAt,value
2017-10-06T00:00:34.438Z,75.43
2017-10-06T00:03:01.995Z,75.62
2017-10-06T00:05:29.555Z,75.33
2017-10-06T00:07:57.304Z,75.47
2017-10-06T00:10:24.836Z,75.19
2017-10-06T00:12:52.368Z,75.41
2017-10-06T00:15:20.100Z,75.69
2017-10-06T00:17:47.628Z,75.67
2017-10-06T00:20:15.373Z,76.05
2017-10-06T00:22:43.403Z,76.38
2017-10-06T00:25:10.950Z,76.08
2017-10-06T00:27:38.480Z,75.84
2017-10-06T00:30:06.376Z,75.86
2017-10-06T00:32:34.025Z,75.39
2017-10-06T00:35:01.597Z,74.79
2017-10-06T00:37:29.563Z,75.02
2017-10-06T00:39:57.124Z,74.61
2017-10-06T00:42:24.675Z,74.40
2017-10-06T00:44:52.447Z,74.64
2017-10-06T00:47:20.046Z,74.39
2017-10-06T00:49:47.564Z,73.99
2017-10-06T00:52:15.311Z,73.95
2017-10-06T00:54:42.840Z,73.86
2017-10-06T00:57:10.388Z,73.11
2017-10-06T00:59:38.300Z,72.78
2017-10-06T01:02:05.872Z,72.80
2017-10-06T01:04:33.403Z,72.79
2017-10-06T01:07:01.182Z,72.81
2017-10-06T01:09:28.703Z,73.17
2017-10-06T01:11:56.232Z,73.17
2017-10-06T01:14:23.808Z,73.84
2017-10-06T01:16:51.339Z,74.34
2017-10-06T01:19:19.810Z,74.56
2017-10-06T01:21:47.588Z,74.20
2017-10-06T01:24:15.132Z,74.39
2017-10-06T01:26:42.707Z,74.45
2017-10-06T01:29:10.283Z,74.42
2017-10-06T01:31:37.844Z,74.48
2017-10-06T01:34:05.368Z,74.26
2017-10-06T01:36:33.276Z,73.77
2017-10-06T01:39:00.795Z,74.30
2017-10-06T01:41:28.354Z,74.28
2017-10-06T01:43:55.911Z,74.29
2017-10-06T01:46:23.472Z,74.45
2017-10-06T01:48:51.031Z,74.21
2017-10-06T01:51:18.590Z,73.82
2017-10-06T01:53:46.148Z,73.58
2017-10-06T01:56:13.714Z,73.57
2017-10-06T01:58:41.456Z,73.62
2017-10-06T02:01:08.984Z,73.35
2017-10-06T02:03:36.591Z,73.41
2017-10-06T02:06:04.140Z,73.64
2017-10-06T02:08:31.716Z,74.02
2017-10-06T02:10:59.267Z,73.59
2017-10-06T02:13:27.080Z,73.82
2017-10-06T02:15:54.629Z,73.80
2017-10-06T02:18:22.384Z,73.69
2017-10-06T02:20:50.030Z,72.81
2017-10-06T02:23:17.575Z,73.04
2017-10-06T02:25:45.149Z,73.48
2017-10-06T02:28:12.724Z,73.89
2017-10-06T02:30:40.252Z,73.99
2017-10-06T02:33:07.814Z,73.84
2017-10-06T02:35:35.358Z,73.66
2017-10-06T02:38:02.992Z,74.08
2017-10-06T02:40:30.518Z,74.09
2017-10-06T02:42:58.256Z,74.27
2017-10-06T02:45:25.775Z,74.09
2017-10-06T02:47:53.299Z,75.09
2017-10-06T02:50:21.026Z,74.91
2017-10-06T02:52:48.592Z,74.76
2017-10-06T02:55:16.152Z,74.37
2017-10-06T02:57:43.725Z,74.51
2017-10-06T03:00:11.268Z,74.55
2017-10-06T03:02:38.828Z,74.99
2017-10-06T03:05:06.591Z,74.55
2017-10-06T03:07:34.322Z,74.54
2017-10-06T03:10:01.889Z,74.53
2017-10-06T03:12:29.595Z,75.02
2017-10-06T03:14:57.135Z,74.62
2017-10-06T03:17:24.694Z,74.39
2017-10-06T03:19:52.356Z,74.37
2017-10-06T03:22:19.876Z,73.60
2017-10-06T03:24:47.395Z,73.31
2017-10-06T03:27:15.251Z,73.10
2017-10-06T03:29:42.796Z,72.95
2017-10-06T03:32:10.313Z,72.81
2017-10-06T03:34:38.155Z,72.90
2017-10-06T03:37:05.671Z,73.13
2017-10-06T03:39:33.235Z,73.34
2017-10-06T03:42:01.108Z,73.53
2017-10-06T03:44:28.620Z,73.96
2017-10-06T03:46:56.143Z,73.95
2017-10-06T03:49:23.864Z,73.99
2017-10-06T03:51:51.443Z,74.19
2017-10-06T03:54:18.964Z,74.15
2017-10-06T03:56:46.765Z,73.76
2017-10-06T03:59:14.325Z,73.90
2017-10-06T04:01:41.885Z,73.76
2017-10-06T04:04:09.632Z,72.91
2017-10-06T04:06:37.156Z,72.92
2017-10-06T04:09:04.846Z,72.66
2017-10-06T04:11:32.619Z,72.72
2017-10-06T04:14:00.139Z,72.68
2017-10-06T04:16:27.688Z,72.64
2017-10-06T04:18:55.391Z,72.80
2017-10-06T04:21:22.972Z,72.79
2017-10-06T04:23:50.531Z,72.31
2017-10-06T04:26:18.275Z,72.49
2017-10-06T04:28:45.853Z,72.64
2017-10-06T04:31:13.414Z,72.47
2017-10-06T04:33:40.984Z,73.04
2017-10-06T04:36:08.530Z,72.67
2017-10-06T04:38:36.090Z,72.47
2017-10-06T04:41:04.040Z,72.57
2017-10-06T04:43:31.561Z,72.63
2017-10-06T04:45:59.585Z,73.04
2017-10-06T04:48:27.132Z,73.05
2017-10-06T04:50:54.705Z,72.75
2017-10-06T04:53:22.224Z,72.55
2017-10-06T04:55:49.822Z,73.07
2017-10-06T04:58:17.380Z,72.65
2017-10-06T05:00:45.023Z,72.42
2017-10-06T05:03:12.592Z,73.11
2017-10-06T05:05:40.110Z,73.23
2017-10-06T05:08:07.644Z,73.60
2017-10-06T05:10:35.380Z,73.37
2017-10-06T05:13:02.941Z,73.13
2017-10-06T05:15:30.501Z,73.40
2017-10-06T05:17:58.064Z,73.48
2017-10-06T05:20:25.630Z,72.82
2017-10-06T05:22:53.177Z,72.55
2017-10-06T05:25:21.043Z,72.67
2017-10-06T05:27:48.645Z,72.46
2017-10-06T05:30:16.171Z,72.44
2017-10-06T05:32:43.822Z,72.77
2017-10-06T05:35:11.383Z,72.80
2017-10-06T05:37:38.940Z,73.04
2017-10-06T05:40:06.687Z,72.84
2017-10-06T05:42:34.212Z,72.81
2017-10-06T05:45:01.745Z,72.12
2017-10-06T05:47:29.689Z,72.72
2017-10-06T05:49:57.217Z,73.63
2017-10-06T05:52:24.736Z,72.85
2017-10-06T05:54:52.673Z,73.30
2017-10-06T05:57:20.234Z,73.71
2017-10-06T05:59:47.808Z,73.49
2017-10-06T06:02:15.536Z,73.14
2017-10-06T06:04:43.059Z,72.67
2017-10-06T06:07:10.583Z,73.10
2017-10-06T06:09:38.130Z,72.84
2017-10-06T06:12:05.691Z,72.63
2017-10-06T06:14:33.248Z,72.44
2017-10-06T06:17:01.934Z,72.79
2017-10-06T06:19:29.514Z,72.48
2017-10-06T06:21:57.066Z,72.34
2017-10-06T06:24:24.612Z,72.60
2017-10-06T06:26:52.170Z,71.99
2017-10-06T06:29:19.741Z,72.08
2017-10-06T06:31:48.218Z,72.32
2017-10-06T06:34:15.769Z,73.13
2017-10-06T06:36:44.353Z,72.37
2017-10-06T06:39:11.916Z,72.95
2017-10-06T06:41:39.471Z,72.34
2017-10-06T06:44:07.033Z,72.42
2017-10-06T06:46:35.308Z,72.61
2017-10-06T06:49:02.840Z,72.72
2017-10-06T06:51:30.426Z,72.06
2017-10-06T06:53:58.197Z,72.37
2017-10-06T06:56:25.719Z,72.38
2017-10-06T06:58:53.244Z,71.54
2017-10-06T07:01:20.866Z,71.60
2017-10-06T07:03:48.425Z,71.98
2017-10-06T07:06:15.983Z,71.96
2017-10-06T07:08:43.737Z,71.00
2017-10-06T07:11:11.310Z,70.78
2017-10-06T07:13:38.859Z,70.80
2017-10-06T07:16:06.453Z,70.98
2017-10-06T07:18:34.041Z,71.12
2017-10-06T07:21:01.560Z,71.49
2017-10-06T07:23:29.259Z,71.58
2017-10-06T07:25:56.791Z,70.83
2017-10-06T07:28:24.313Z,71.27
2017-10-06T07:30:52.093Z,69.45
2017-10-06T07:33:19.611Z,69.37
2017-10-06T07:35:47.143Z,68.18
2017-10-06T07:38:14.888Z,66.67
2017-10-06T07:40:42.416Z,66.06
2017-10-06T07:43:09.937Z,65.50
2017-10-06T07:45:37.797Z,64.60
2017-10-06T07:48:05.324Z,64.27
2017-10-06T07:50:32.855Z,64.20
2017-10-06T07:53:00.787Z,64.39
2017-10-06T07:55:28.310Z,64.05
2017-10-06T07:57:55.845Z,63.91
2017-10-06T08:00:23.405Z,61.88
2017-10-06T08:02:50.968Z,60.07
2017-10-06T08:05:18.801Z,59.09
2017-10-06T08:07:46.701Z,58.05
2017-10-06T08:10:14.223Z,57.66
2017-10-06T08:12:42.461Z,56.61
2017-10-06T08:15:10.900Z,57.52
2017-10-06T08:17:38.474Z,56.54
2017-10-06T08:20:05.996Z,56.93
2017-10-06T08:22:33.797Z,56.96
2017-10-06T08:25:01.327Z,57.00
2017-10-06T08:27:28.865Z,56.80
2017-10-06T08:29:56.568Z,55.38
2017-10-06T08:32:24.134Z,54.21
2017-10-06T08:34:51.694Z,54.27
2017-10-06T08:37:19.443Z,53.50
2017-10-06T08:39:46.965Z,52.63
2017-10-06T08:42:14.490Z,49.93
2017-10-06T08:44:42.340Z,47.14
2017-10-06T08:47:09.920Z,47.09
2017-10-06T08:49:37.460Z,47.04
2017-10-06T08:52:05.308Z,47.31
2017-10-06T08:54:32.836Z,48.58
2017-10-06T08:57:00.392Z,47.94
2017-10-06T08:59:28.206Z,47.18
2017-10-06T09:01:55.772Z,47.06
2017-10-06T09:04:23.325Z,47.71
2017-10-06T09:06:50.900Z,49.56
2017-10-06T09:09:18.466Z,48.97
2017-10-06T09:11:45.991Z,49.04
2017-10-06T09:14:13.669Z,48.12
2017-10-06T09:16:41.184Z,48.98
2017-10-06T09:19:08.700Z,47.01
2017-10-06T09:21:36.342Z,43.01
2017-10-06T09:24:04.413Z,39.75
2017-10-06T09:26:31.970Z,35.14
2017-10-06T09:28:59.735Z,33.92
2017-10-06T09:31:27.255Z,33.12
2017-10-06T09:33:54.781Z,31.19
2017-10-06T09:36:22.516Z,31.34
2017-10-06T09:38:50.075Z,31.10
2017-10-06T09:41:17.604Z,32.71
2017-10-06T09:43:45.193Z,32.92
2017-10-06T09:46:12.752Z,34.48
2017-10-06T09:48:40.311Z,36.69
2017-10-06T09:51:07.873Z,36.80
2017-10-06T09:53:35.428Z,38.47
2017-10-06T09:56:02.950Z,36.86
2017-10-06T09:58:30.634Z,36.79
2017-10-06T10:00:58.256Z,35.95
2017-10-06T10:03:25.776Z,38.05
2017-10-06T10:05:53.516Z,41.27
2017-10-06T10:08:21.051Z,37.84
2017-10-06T10:10:49.571Z,32.47
2017-10-06T10:13:17.166Z,29.41
2017-10-06T10:15:44.696Z,28.75
2017-10-06T10:18:12.217Z,31.85
2017-10-06T10:20:39.910Z,36.79
2017-10-06T10:23:07.478Z,38.31
2017-10-06T10:25:35.003Z,38.48
2017-10-06T10:28:02.672Z,39.77
2017-10-06T10:30:30.197Z,39.53
2017-10-06T10:32:57.720Z,35.58
2017-10-06T10:35:25.279Z,35.76
2017-10-06T10:37:52.822Z,37.47
2017-10-06T10:40:20.343Z,39.08
2017-10-06T10:42:48.153Z,32.52
2017-10-06T10:45:15.705Z,26.52
2017-10-06T10:47:43.266Z,29.01
2017-10-06T10:50:11.029Z,32.45
2017-10-06T10:52:38.602Z,36.28
2017-10-06T10:55:06.129Z,37.94
2017-10-06T10:57:34.040Z,39.85
2017-10-06T11:00:01.555Z,41.58
2017-10-06T11:02:29.084Z,42.11
2017-10-06T11:04:56.646Z,41.25
2017-10-06T11:07:24.168Z,39.87
2017-10-06T11:09:51.688Z,41.61
2017-10-06T11:12:19.396Z,42.02
2017-10-06T11:17:21.243Z,44.70
2017-10-06T11:19:48.825Z,45.38
2017-10-06T11:22:16.516Z,46.62
2017-10-06T11:24:44.324Z,47.28
2017-10-06T11:27:11.903Z,46.51
2017-10-06T11:29:39.465Z,46.00
2017-10-06T11:32:07.449Z,45.99
2017-10-06T11:34:35.205Z,47.88
2017-10-06T11:37:02.949Z,48.04
2017-10-06T11:39:30.577Z,47.39
2017-10-06T11:41:58.166Z,47.02
2017-10-06T11:44:25.726Z,47.67
2017-10-06T11:46:53.489Z,50.27
2017-10-06T11:49:21.069Z,53.30
2017-10-06T11:51:48.914Z,56.55
2017-10-06T11:54:16.987Z,55.72
2017-10-06T11:56:44.779Z,53.29
2017-10-06T11:59:12.653Z,53.34
2017-10-06T12:01:41.302Z,50.78
2017-10-06T12:04:09.071Z,41.22
2017-10-06T12:06:37.046Z,36.98
2017-10-06T12:09:05.722Z,38.12
2017-10-06T12:11:33.587Z,39.10
2017-10-06T12:14:01.307Z,42.22
2017-10-06T12:16:29.116Z,44.87
2017-10-06T12:18:56.868Z,48.20
2017-10-06T12:21:24.540Z,50.60
2017-10-06T12:23:52.494Z,54.04
2017-10-06T12:26:20.071Z,55.49
2017-10-06T12:28:47.767Z,57.74
2017-10-06T12:31:15.813Z,59.39
2017-10-06T12:33:43.589Z,62.06
2017-10-06T12:36:11.327Z,62.84
2017-10-06T12:38:39.048Z,64.67
2017-10-06T12:41:06.673Z,63.65
2017-10-06T12:43:34.423Z,61.84
2017-10-06T12:46:02.488Z,59.79
2017-10-06T12:48:30.263Z,57.00
2017-10-06T12:50:57.822Z,55.45
2017-10-06T12:53:25.423Z,55.22
2017-10-06T12:55:53.441Z,55.81
2017-10-06T12:58:21.409Z,50.58
2017-10-06T13:00:49.494Z,50.74
2017-10-06T13:03:17.161Z,51.40
2017-10-06T13:05:44.699Z,48.85
2017-10-06T13:08:12.873Z,48.97
2017-10-06T13:10:40.544Z,49.41
2017-10-06T13:13:08.290Z,51.63
2017-10-06T13:15:36.294Z,52.39
2017-10-06T13:18:03.972Z,52.29
2017-10-06T13:20:31.830Z,51.59
2017-10-06T13:22:59.723Z,51.31
2017-10-06T13:25:27.424Z,50.75
2017-10-06T13:27:55.090Z,51.32
2017-10-06T13:30:23.081Z,50.96
2017-10-06T13:32:51.433Z,51.33
2017-10-06T13:35:19.217Z,50.96
2017-10-06T13:37:47.063Z,51.28
2017-10-06T13:40:14.726Z,51.52
2017-10-06T13:42:42.491Z,49.68
2017-10-06T13:45:10.662Z,51.08
2017-10-06T13:47:38.457Z,52.92
2017-10-06T13:50:06.175Z,52.97
2017-10-06T13:52:34.261Z,53.15
2017-10-06T13:55:02.641Z,54.28
2017-10-06T13:57:31.120Z,53.69
2017-10-06T13:59:59.310Z,53.55
2017-10-06T14:02:27.127Z,53.12
2017-10-06T14:04:55.231Z,51.59
2017-10-06T14:07:23.316Z,51.94
2017-10-06T14:09:51.169Z,52.34
2017-10-06T14:12:18.958Z,53.33
2017-10-06T14:14:46.836Z,53.99
2017-10-06T14:17:14.627Z,52.93
2017-10-06T14:19:42.449Z,53.01
2017-10-06T14:22:10.708Z,53.40
2017-10-06T14:24:38.388Z,54.16
2017-10-06T14:27:06.234Z,54.11
2017-10-06T14:29:34.124Z,55.23
2017-10-06T14:32:01.864Z,56.31
2017-10-06T14:34:29.579Z,57.56
2017-10-06T14:36:57.493Z,57.02
2017-10-06T14:39:25.274Z,59.79
2017-10-06T14:41:53.040Z,58.00
2017-10-06T14:44:21.194Z,60.14
2017-10-06T14:46:48.964Z,59.84
2017-10-06T14:49:16.722Z,59.80
2017-10-06T14:51:44.693Z,60.73
2017-10-06T14:54:12.455Z,59.81
2017-10-06T14:56:40.021Z,59.50
2017-10-06T14:59:07.881Z,60.70
2017-10-06T15:01:35.439Z,60.13
2017-10-06T15:04:03.100Z,60.56
2017-10-06T15:06:30.867Z,61.71
2017-10-06T15:08:58.464Z,60.29
2017-10-06T15:11:26.012Z,60.28
2017-10-06T15:13:53.749Z,59.85
2017-10-06T15:16:21.409Z,59.31
2017-10-06T15:18:48.968Z,60.21
2017-10-06T15:21:16.569Z,59.53
2017-10-06T15:23:44.195Z,59.36
2017-10-06T15:26:11.746Z,58.95
2017-10-06T15:28:39.512Z,58.78
2017-10-06T15:31:07.175Z,59.46
2017-10-06T15:33:34.731Z,60.12
2017-10-06T15:36:02.391Z,59.74
2017-10-06T15:38:29.965Z,59.02
2017-10-06T15:40:58.091Z,58.03
2017-10-06T15:43:25.910Z,59.35
2017-10-06T15:45:53.439Z,59.52
2017-10-06T15:48:21.031Z,59.89
2017-10-06T15:50:48.874Z,59.99
2017-10-06T15:53:16.411Z,60.79
2017-10-06T15:55:43.993Z,61.81
2017-10-06T15:58:12.064Z,62.33
2017-10-06T16:00:39.950Z,62.81
2017-10-06T16:03:07.753Z,62.84
2017-10-06T16:05:35.558Z,63.80
2017-10-06T16:08:03.134Z,62.70
2017-10-06T16:10:30.733Z,62.93
2017-10-06T16:12:58.579Z,63.22
2017-10-06T16:15:26.429Z,63.72
2017-10-06T16:17:54.281Z,63.90
2017-10-06T16:20:21.860Z,63.81
2017-10-06T16:22:49.418Z,64.03
2017-10-06T16:25:16.977Z,63.84
2017-10-06T16:27:44.618Z,64.00
2017-10-06T16:30:12.171Z,64.15
2017-10-06T16:32:39.729Z,64.39
2017-10-06T16:35:07.497Z,65.29
2017-10-06T16:37:35.040Z,65.17
2017-10-06T16:40:02.608Z,65.90
2017-10-06T16:42:30.585Z,66.28
2017-10-06T16:44:58.249Z,65.63
2017-10-06T16:47:25.825Z,65.16
2017-10-06T16:49:53.391Z,66.21
2017-10-06T16:52:20.952Z,66.16
2017-10-06T16:54:48.486Z,66.77
2017-10-06T16:57:16.144Z,66.59
2017-10-06T16:59:43.808Z,66.76
2017-10-06T17:02:11.655Z,66.72
2017-10-06T17:04:39.258Z,66.55
2017-10-06T17:07:06.809Z,66.85
2017-10-06T17:09:34.453Z,66.43
2017-10-06T17:12:03.131Z,66.38
2017-10-06T17:14:30.684Z,66.56
2017-10-06T17:16:58.358Z,65.80
2017-10-06T17:19:26.064Z,65.84
2017-10-06T17:21:53.596Z,65.77
2017-10-06T17:24:21.145Z,66.49
2017-10-06T17:26:49.016Z,66.52
2017-10-06T17:29:17.823Z,66.59
2017-10-06T17:31:45.766Z,66.70
2017-10-06T17:34:13.939Z,66.24
2017-10-06T17:36:42.437Z,66.41
2017-10-06T17:39:10.522Z,66.19
2017-10-06T17:41:38.883Z,65.98
2017-10-06T17:44:06.832Z,65.71
2017-10-06T17:46:34.391Z,66.14
2017-10-06T17:49:02.360Z,66.14
2017-10-06T17:51:30.330Z,66.14
2017-10-06T17:53:58.194Z,66.30
2017-10-06T17:56:25.964Z,67.13
2017-10-06T17:58:54.395Z,67.65
2017-10-06T18:01:22.308Z,67.19
2017-10-06T18:03:50.559Z,67.60
2017-10-06T18:06:18.369Z,67.86
2017-10-06T18:08:46.109Z,67.23
2017-10-06T18:11:14.129Z,67.08
2017-10-06T18:13:42.317Z,67.98
2017-10-06T18:16:10.479Z,67.56
2017-10-06T18:18:38.565Z,67.64
2017-10-06T18:21:06.466Z,68.11
2017-10-06T18:23:34.449Z,68.33
2017-10-06T18:26:02.199Z,68.58
2017-10-06T18:28:29.962Z,68.44
2017-10-06T18:30:59.463Z,68.99
2017-10-06T18:33:28.509Z,69.14
2017-10-06T18:35:56.783Z,69.60
2017-10-06T18:38:25.475Z,69.43
2017-10-06T18:40:54.939Z,69.33
2017-10-06T18:43:23.054Z,69.20
2017-10-06T18:45:51.674Z,68.95
2017-10-06T18:48:20.626Z,68.81
2017-10-06T18:50:49.186Z,69.26
2017-10-06T18:53:17.364Z,68.81
2017-10-06T18:55:45.740Z,68.66
2017-10-06T18:58:13.892Z,68.58
2017-10-06T19:00:42.209Z,68.26
2017-10-06T19:03:10.479Z,67.98
2017-10-06T19:05:38.304Z,67.82
2017-10-06T19:08:06.573Z,67.48
2017-10-06T19:10:35.524Z,67.30
2017-10-06T19:13:04.390Z,67.26
2017-10-06T19:15:32.938Z,67.04
2017-10-06T19:18:01.246Z,67.05
2017-10-06T19:20:29.744Z,67.49
2017-10-06T19:22:58.550Z,67.31
2017-10-06T19:25:27.407Z,66.92
2017-10-06T19:27:56.086Z,67.28
2017-10-06T19:30:24.864Z,66.71
2017-10-06T19:32:53.243Z,66.23
2017-10-06T19:35:21.340Z,66.15
2017-10-06T19:37:50.201Z,66.42
2017-10-06T19:40:19.623Z,65.88
2017-10-06T19:42:47.459Z,65.95
2017-10-06T19:45:16.213Z,66.16
2017-10-06T19:47:44.993Z,66.37
2017-10-06T19:50:13.479Z,66.02
2017-10-06T19:52:41.866Z,65.42
2017-10-06T19:55:11.327Z,65.46
2017-10-06T19:57:39.867Z,65.37
2017-10-06T20:00:08.244Z,65.90
2017-10-06T20:02:36.875Z,64.97
2017-10-06T20:05:05.618Z,65.64
2017-10-06T20:07:34.669Z,65.55
2017-10-06T20:10:04.023Z,65.56
2017-10-06T20:12:32.435Z,65.26
2017-10-06T20:15:02.144Z,65.30
2017-10-06T20:17:30.974Z,64.36
2017-10-06T20:19:59.630Z,64.67
2017-10-06T20:22:29.604Z,64.60
2017-10-06T20:24:58.572Z,63.70
2017-10-06T20:27:27.857Z,64.67
2017-10-06T20:29:56.285Z,64.12
2017-10-06T20:32:25.646Z,64.21
2017-10-06T20:34:55.754Z,65.29
2017-10-06T20:37:24.441Z,65.97
2017-10-06T20:39:53.777Z,65.65
2017-10-06T20:42:22.211Z,65.92
2017-10-06T20:44:51.012Z,66.04
2017-10-06T20:47:20.545Z,66.66
2017-10-06T20:49:49.394Z,66.87
2017-10-06T20:52:18.139Z,67.60
2017-10-06T20:54:46.326Z,66.89
2017-10-06T20:57:14.486Z,66.71
2017-10-06T20:59:43.490Z,66.83
2017-10-06T21:02:11.509Z,67.03
2017-10-06T21:04:39.915Z,67.19
2017-10-06T21:07:09.085Z,66.12
2017-10-06T21:09:38.038Z,66.11
2017-10-06T21:12:06.965Z,65.61
2017-10-06T21:14:35.520Z,66.46
2017-10-06T21:17:03.566Z,65.56
2017-10-06T21:19:31.815Z,65.58
2017-10-06T21:22:00.995Z,65.28
2017-10-06T21:24:30.110Z,65.13
2017-10-06T21:26:58.084Z,65.00
2017-10-06T21:29:26.963Z,65.35
2017-10-06T21:31:55.800Z,65.24
2017-10-06T21:34:24.381Z,64.97
2017-10-06T21:36:53.015Z,64.79
2017-10-06T21:39:21.725Z,65.23
2017-10-06T21:41:50.260Z,65.42
2017-10-06T21:44:18.844Z,65.66
2017-10-06T21:46:47.000Z,65.33
2017-10-06T21:49:15.311Z,65.39
2017-10-06T21:51:43.655Z,65.55
2017-10-06T21:54:12.203Z,66.03
2017-10-06T21:56:40.198Z,66.36
2017-10-06T21:59:08.849Z,66.50
2017-10-06T22:01:37.039Z,66.72
2017-10-06T22:04:05.486Z,67.35
2017-10-06T22:06:34.229Z,67.17
2017-10-06T22:09:02.471Z,67.84
2017-10-06T22:11:30.331Z,68.19
2017-10-06T22:13:58.774Z,68.22
2017-10-06T22:16:26.704Z,68.00
2017-10-06T22:18:54.688Z,68.15
2017-10-06T22:21:23.073Z,68.38
2017-10-06T22:23:51.521Z,68.16
2017-10-06T22:26:19.656Z,68.42
2017-10-06T22:28:48.009Z,68.08
2017-10-06T22:31:15.927Z,68.25
2017-10-06T22:33:44.112Z,68.19
2017-10-06T22:36:12.514Z,68.05
2017-10-06T22:38:40.643Z,68.44
2017-10-06T22:41:08.645Z,68.00
2017-10-06T22:43:36.790Z,68.05
2017-10-06T22:46:04.849Z,68.30
2017-10-06T22:48:32.839Z,68.21
2017-10-06T22:51:01.292Z,68.50
2017-10-06T22:53:29.331Z,68.18
2017-10-06T22:55:57.334Z,68.42
2017-10-06T22:58:25.342Z,69.08
2017-10-06T23:00:56.781Z,68.87
2017-10-06T23:03:24.737Z,69.35
2017-10-06T23:05:52.927Z,69.36
2017-10-06T23:08:21.124Z,69.29
2017-10-06T23:10:49.564Z,69.85
2017-10-06T23:13:17.362Z,69.62
2017-10-06T23:15:45.822Z,69.93
2017-10-06T23:18:13.881Z,70.35
2017-10-06T23:20:42.012Z,70.26
2017-10-06T23:23:10.124Z,70.21
2017-10-06T23:25:37.717Z,69.65
2017-10-06T23:28:06.247Z,70.10
2017-10-06T23:30:34.950Z,69.68
2017-10-06T23:33:03.380Z,68.93
2017-10-06T23:35:31.559Z,68.68
2017-10-06T23:37:59.686Z,68.29
2017-10-06T23:40:31.578Z,68.47
2017-10-06T23:42:59.618Z,68.69
2017-10-06T23:45:27.640Z,68.05
2017-10-06T23:47:56.571Z,68.43
2017-10-06T23:50:24.714Z,68.16
2017-10-06T23:52:53.339Z,68.32
2017-10-06T23:55:22.284Z,68.15
2017-10-06T23:57:50.710Z,68.37
